createdAt,value
2019-06-26T00:01:12.273Z,14.40
2019-06-26T00:03:39.666Z,15.53
2019-06-26T00:06:07.006Z,16.97
2019-06-26T00:08:34.545Z,15.70
2019-06-26T00:11:02.090Z,16.13
2019-06-26T00:13:29.586Z,13.93
2019-06-26T00:15:56.938Z,17.93
2019-06-26T00:18:24.347Z,12.37
2019-06-26T00:20:51.805Z,18.20
2019-06-26T00:23:19.188Z,13.17
2019-06-26T00:25:46.588Z,15.63
2019-06-26T00:28:13.923Z,21.23
2019-06-26T00:30:41.994Z,14.03
2019-06-26T00:33:09.404Z,17.70
2019-06-26T00:35:36.845Z,19.83
2019-06-26T00:38:04.168Z,21.37
2019-06-26T00:40:31.517Z,18.37
2019-06-26T00:42:58.876Z,15.23
2019-06-26T00:45:26.502Z,20.63
2019-06-26T00:47:53.996Z,23.60
2019-06-26T00:50:21.632Z,16.63
2019-06-26T00:52:49.258Z,16.17
2019-06-26T00:55:16.795Z,17.30
2019-06-26T00:57:44.116Z,14.83
2019-06-26T01:00:11.676Z,19.00
2019-06-26T01:02:39.040Z,16.60
2019-06-26T01:05:09.323Z,19.90
2019-06-26T01:07:36.884Z,17.47
2019-06-26T01:10:04.892Z,14.53
2019-06-26T01:12:32.185Z,15.63
2019-06-26T01:14:59.518Z,14.03
2019-06-26T01:17:27.049Z,15.77
2019-06-26T01:19:54.394Z,16.77
2019-06-26T01:22:21.772Z,13.67
2019-06-26T01:24:49.123Z,14.87
2019-06-26T01:27:16.554Z,15.30
2019-06-26T01:29:43.921Z,17.13
2019-06-26T01:32:11.344Z,15.63
2019-06-26T01:34:38.659Z,14.20
2019-06-26T01:37:06.048Z,16.60
2019-06-26T01:39:33.351Z,13.87
2019-06-26T01:42:00.852Z,13.33
2019-06-26T01:44:28.258Z,15.10
2019-06-26T01:46:55.595Z,13.23
2019-06-26T01:49:22.938Z,15.20
2019-06-26T01:51:50.518Z,15.83
2019-06-26T01:54:17.809Z,18.33
2019-06-26T01:56:45.161Z,17.13
2019-06-26T01:59:12.485Z,14.30
2019-06-26T02:01:39.920Z,13.93
2019-06-26T02:04:07.414Z,14.73
2019-06-26T02:06:34.819Z,13.10
2019-06-26T02:09:02.134Z,13.73
2019-06-26T02:11:29.666Z,16.97
2019-06-26T02:13:56.980Z,15.77
2019-06-26T02:16:24.379Z,17.53
2019-06-26T02:18:56.003Z,24.13
2019-06-26T02:21:23.483Z,14.73
2019-06-26T02:23:51.096Z,20.90
2019-06-26T02:26:18.920Z,16.77
2019-06-26T02:28:46.362Z,20.37
2019-06-26T02:31:13.662Z,23.43
2019-06-26T02:33:41.014Z,19.60
2019-06-26T02:36:08.328Z,17.23
2019-06-26T02:38:35.653Z,17.77
2019-06-26T02:41:03.182Z,14.23
2019-06-26T02:43:30.812Z,19.07
2019-06-26T02:45:58.172Z,13.37
2019-06-26T02:48:25.528Z,16.67
2019-06-26T02:50:52.928Z,17.07
2019-06-26T02:53:20.256Z,15.37
2019-06-26T02:55:47.616Z,24.97
2019-06-26T02:58:14.998Z,17.23
2019-06-26T03:00:42.635Z,17.67
2019-06-26T03:03:10.442Z,20.83
2019-06-26T03:05:37.866Z,17.37
2019-06-26T03:08:05.211Z,27.60
2019-06-26T03:10:32.532Z,16.83
2019-06-26T03:12:59.864Z,23.53
2019-06-26T03:15:27.216Z,24.70
2019-06-26T03:17:55.866Z,17.70
2019-06-26T03:20:27.090Z,22.60
2019-06-26T03:22:54.504Z,18.03
2019-06-26T03:25:21.938Z,20.27
2019-06-26T03:27:49.246Z,14.57
2019-06-26T03:30:16.632Z,21.17
2019-06-26T03:32:44.024Z,18.93
2019-06-26T03:35:11.378Z,16.73
2019-06-26T03:37:38.701Z,14.53
2019-06-26T03:40:07.155Z,16.43
2019-06-26T03:42:34.470Z,19.43
2019-06-26T03:45:01.913Z,23.30
2019-06-26T03:47:29.394Z,22.23
2019-06-26T03:49:56.803Z,19.90
2019-06-26T03:52:24.124Z,19.27
2019-06-26T03:54:51.476Z,17.57
2019-06-26T03:57:18.753Z,18.67
2019-06-26T03:59:46.097Z,17.47
2019-06-26T04:02:13.420Z,17.23
2019-06-26T04:04:40.748Z,15.83
2019-06-26T04:07:08.058Z,17.40
2019-06-26T04:09:35.499Z,19.90
2019-06-26T04:12:03.452Z,20.87
2019-06-26T04:14:30.875Z,21.10
2019-06-26T04:16:58.245Z,14.20
2019-06-26T04:19:25.546Z,22.87
2019-06-26T04:21:52.906Z,20.17
2019-06-26T04:24:20.189Z,15.23
2019-06-26T04:26:47.534Z,20.80
2019-06-26T04:29:14.868Z,14.73
2019-06-26T04:31:42.217Z,18.23
2019-06-26T04:34:09.603Z,18.60
2019-06-26T04:36:36.953Z,20.23
2019-06-26T04:39:06.291Z,16.90
2019-06-26T04:41:33.666Z,21.13
2019-06-26T04:44:00.964Z,20.37
2019-06-26T04:46:28.343Z,20.60
2019-06-26T04:48:55.636Z,17.60
2019-06-26T04:51:22.989Z,14.97
2019-06-26T04:53:50.296Z,18.00
2019-06-26T04:56:17.618Z,18.73
2019-06-26T04:58:44.964Z,16.87
2019-06-26T05:01:12.271Z,14.30
2019-06-26T05:03:39.645Z,14.87
2019-06-26T05:06:07.071Z,17.27
2019-06-26T05:08:34.453Z,20.17
2019-06-26T05:11:01.795Z,16.43
2019-06-26T05:13:29.138Z,13.53
2019-06-26T05:15:56.435Z,17.63
2019-06-26T05:18:23.675Z,14.50
2019-06-26T05:20:50.989Z,17.70
2019-06-26T05:23:18.325Z,15.47
2019-06-26T05:25:45.774Z,15.30
2019-06-26T05:28:13.141Z,15.50
2019-06-26T05:30:40.603Z,17.97
2019-06-26T05:33:07.978Z,17.17
2019-06-26T05:35:35.529Z,12.63
2019-06-26T05:38:03.337Z,14.33
2019-06-26T05:40:30.642Z,15.97
2019-06-26T05:42:58.003Z,17.47
2019-06-26T05:45:25.313Z,14.20
2019-06-26T05:47:52.642Z,19.83
2019-06-26T05:50:20.346Z,17.13
2019-06-26T05:52:47.736Z,17.27
2019-06-26T05:55:15.088Z,18.93
2019-06-26T05:57:42.428Z,16.70
2019-06-26T06:00:10.727Z,20.67
2019-06-26T06:02:38.203Z,15.47
2019-06-26T06:05:05.922Z,17.37
2019-06-26T06:07:33.230Z,16.43
2019-06-26T06:10:00.680Z,17.57
2019-06-26T06:12:27.948Z,14.83
2019-06-26T06:14:55.299Z,17.80
2019-06-26T06:17:24.905Z,18.00
2019-06-26T06:19:52.297Z,16.63
2019-06-26T06:22:19.622Z,12.53
2019-06-26T06:24:46.956Z,13.87
2019-06-26T06:27:14.269Z,17.50
2019-06-26T06:29:41.621Z,15.20
2019-06-26T06:32:08.947Z,18.10
2019-06-26T06:34:36.374Z,14.27
2019-06-26T06:37:03.824Z,11.00
2019-06-26T06:39:31.164Z,21.53
2019-06-26T06:41:58.809Z,13.43
2019-06-26T06:44:26.151Z,14.93
2019-06-26T06:47:04.087Z,11.17
2019-06-26T06:49:23.684Z,12.17
2019-06-26T06:51:50.980Z,15.50
2019-06-26T06:54:18.313Z,14.00
2019-06-26T06:56:45.707Z,11.13
2019-06-26T06:59:13.008Z,14.93
2019-06-26T07:01:40.367Z,18.73
2019-06-26T07:04:07.665Z,12.20
2019-06-26T07:06:35.111Z,12.97
2019-06-26T07:09:04.147Z,14.43
2019-06-26T07:11:31.568Z,11.23
2019-06-26T07:13:58.918Z,12.60
2019-06-26T07:16:26.256Z,11.67
2019-06-26T07:18:53.670Z,9.13
2019-06-26T07:21:21.018Z,9.13
2019-06-26T07:23:48.372Z,12.50
2019-06-26T07:26:15.814Z,10.63
2019-06-26T07:28:43.121Z,11.23
2019-06-26T07:31:10.494Z,8.73
2019-06-26T07:33:38.111Z,10.63
2019-06-26T07:36:05.497Z,9.73
2019-06-26T07:38:32.907Z,12.00
2019-06-26T07:41:00.272Z,9.83
2019-06-26T07:43:27.646Z,9.07
2019-06-26T07:45:55.263Z,9.40
2019-06-26T07:48:22.612Z,8.08
2019-06-26T07:50:50.006Z,12.47
2019-06-26T07:53:17.386Z,10.58
2019-06-26T07:55:44.685Z,8.80
2019-06-26T07:58:12.018Z,9.43
2019-06-26T08:00:39.330Z,6.72
2019-06-26T08:03:06.673Z,11.38
2019-06-26T08:05:34.349Z,8.78
2019-06-26T08:08:01.732Z,9.00
2019-06-26T08:10:29.125Z,7.00
2019-06-26T08:12:56.546Z,7.47
2019-06-26T08:15:23.859Z,7.87
2019-06-26T08:18:00.502Z,7.03
2019-06-26T08:20:20.574Z,8.43
2019-06-26T08:22:48.080Z,6.72
2019-06-26T08:25:15.382Z,9.93
2019-06-26T08:27:42.753Z,9.28
2019-06-26T08:30:10.552Z,10.35
2019-06-26T08:32:38.004Z,8.58
2019-06-26T08:35:05.618Z,9.08
2019-06-26T08:37:33.068Z,9.90
2019-06-26T08:40:00.434Z,8.85
2019-06-26T08:42:28.231Z,9.33
2019-06-26T08:44:55.589Z,7.40
2019-06-26T08:47:22.958Z,6.70
2019-06-26T08:49:50.272Z,6.97
2019-06-26T08:52:17.686Z,6.00
2019-06-26T08:54:45.026Z,7.15
2019-06-26T08:57:12.412Z,6.80
2019-06-26T08:59:40.141Z,7.35
2019-06-26T09:02:07.470Z,10.58
2019-06-26T09:04:34.836Z,7.12
2019-06-26T09:07:02.160Z,7.28
2019-06-26T09:09:29.506Z,7.97
2019-06-26T09:11:56.817Z,7.15
2019-06-26T09:14:24.151Z,6.85
2019-06-26T09:16:51.464Z,8.03
2019-06-26T09:19:18.790Z,7.30
2019-06-26T09:21:46.087Z,7.28
2019-06-26T09:24:13.550Z,6.95
2019-06-26T09:26:40.871Z,6.80
2019-06-26T09:29:08.271Z,7.80
2019-06-26T09:31:35.848Z,6.15
2019-06-26T09:34:03.267Z,7.12
2019-06-26T09:36:30.582Z,7.30
2019-06-26T09:38:58.165Z,6.50
2019-06-26T09:41:25.508Z,8.20
2019-06-26T09:43:52.822Z,8.58
2019-06-26T09:46:20.898Z,9.93
2019-06-26T09:48:53.064Z,7.78
2019-06-26T09:51:17.590Z,8.68
2019-06-26T09:53:47.684Z,10.32
2019-06-26T09:56:14.264Z,8.08
2019-06-26T09:58:41.606Z,8.00
2019-06-26T10:01:08.918Z,9.08
2019-06-26T10:03:36.205Z,9.60
2019-06-26T10:06:03.561Z,7.15
2019-06-26T10:08:30.856Z,8.13
2019-06-26T10:10:58.198Z,8.70
2019-06-26T10:13:25.536Z,9.10
2019-06-26T10:15:52.901Z,10.85
2019-06-26T10:18:20.438Z,7.83
2019-06-26T10:20:47.816Z,9.73
2019-06-26T10:23:15.151Z,8.13
2019-06-26T10:25:42.456Z,11.57
2019-06-26T10:28:09.917Z,10.18
2019-06-26T10:30:37.404Z,9.78
2019-06-26T10:33:04.903Z,9.95
2019-06-26T10:35:32.463Z,8.65
2019-06-26T10:37:59.852Z,7.87
2019-06-26T10:40:27.255Z,11.43
2019-06-26T10:42:54.585Z,8.38
2019-06-26T10:45:21.889Z,6.78
2019-06-26T10:47:49.213Z,11.05
2019-06-26T10:50:17.570Z,6.72
2019-06-26T10:52:45.098Z,6.35
2019-06-26T10:55:12.898Z,7.67
2019-06-26T10:57:40.277Z,8.88
2019-06-26T11:00:09.478Z,8.18
2019-06-26T11:02:36.896Z,7.50
2019-06-26T11:05:05.319Z,6.70
2019-06-26T11:07:36.254Z,6.60
2019-06-26T11:10:01.916Z,7.00
2019-06-26T11:12:29.354Z,6.72
2019-06-26T11:14:56.647Z,5.37
2019-06-26T11:17:23.952Z,9.90
2019-06-26T11:19:55.181Z,8.10
2019-06-26T11:22:20.495Z,7.17
2019-06-26T11:24:47.822Z,5.42
2019-06-26T11:27:15.289Z,8.05
2019-06-26T11:29:42.740Z,7.62
2019-06-26T11:32:10.230Z,6.70
2019-06-26T11:34:37.585Z,7.60
2019-06-26T11:37:04.902Z,11.57
2019-06-26T11:39:32.331Z,7.30
2019-06-26T11:41:59.659Z,9.53
2019-06-26T11:44:26.987Z,8.63
2019-06-26T11:46:54.305Z,12.30
2019-06-26T11:49:21.669Z,10.30
2019-06-26T11:51:51.249Z,11.20
2019-06-26T11:54:18.578Z,7.90
2019-06-26T11:56:45.869Z,12.73
2019-06-26T11:59:13.425Z,8.43
2019-06-26T12:01:40.769Z,13.90
2019-06-26T12:04:08.070Z,7.15
2019-06-26T12:06:35.406Z,9.65
2019-06-26T12:09:04.510Z,6.55
2019-06-26T12:11:31.894Z,6.92
2019-06-26T12:13:59.281Z,6.75
2019-06-26T12:16:26.636Z,7.20
2019-06-26T12:18:54.006Z,9.30
2019-06-26T12:21:21.511Z,5.95
2019-06-26T12:23:48.908Z,9.65
2019-06-26T12:26:16.401Z,8.93
2019-06-26T12:28:43.797Z,8.93
2019-06-26T12:31:11.145Z,6.97
2019-06-26T12:33:38.553Z,7.62
2019-06-26T12:36:05.922Z,8.63
2019-06-26T12:38:33.309Z,10.80
2019-06-26T12:41:00.649Z,9.50
2019-06-26T12:43:27.974Z,7.00
2019-06-26T12:45:55.390Z,6.45
2019-06-26T12:48:22.692Z,9.08
2019-06-26T12:50:50.358Z,7.22
2019-06-26T12:53:17.673Z,9.95
2019-06-26T12:55:45.014Z,6.90
2019-06-26T12:58:17.933Z,5.92
2019-06-26T13:00:41.573Z,5.97
2019-06-26T13:03:08.898Z,7.92
2019-06-26T13:05:36.410Z,6.25
2019-06-26T13:08:03.838Z,9.90
2019-06-26T13:10:39.280Z,9.40
2019-06-26T13:13:00.593Z,9.40
2019-06-26T13:15:27.934Z,12.60
2019-06-26T13:17:55.249Z,10.48
2019-06-26T13:20:22.583Z,8.48
2019-06-26T13:22:49.974Z,6.70
2019-06-26T13:25:17.327Z,7.97
2019-06-26T13:27:44.638Z,11.38
2019-06-26T13:30:12.395Z,8.23
2019-06-26T13:32:39.810Z,7.35
2019-06-26T13:35:07.209Z,9.88
2019-06-26T13:37:34.807Z,7.30
2019-06-26T13:40:02.237Z,8.38
2019-06-26T13:42:29.625Z,9.05
2019-06-26T13:44:56.929Z,7.50
2019-06-26T13:47:24.301Z,11.08
2019-06-26T13:49:51.607Z,9.25
2019-06-26T13:52:18.975Z,6.42
2019-06-26T13:54:46.276Z,6.50
2019-06-26T13:57:15.811Z,8.45
2019-06-26T13:59:42.866Z,5.83
2019-06-26T14:02:10.263Z,7.35
2019-06-26T14:04:37.661Z,7.15
2019-06-26T14:07:08.492Z,8.43
2019-06-26T14:09:34.664Z,10.80
2019-06-26T14:12:02.054Z,8.98
2019-06-26T14:14:40.997Z,9.55
2019-06-26T14:16:58.683Z,8.30
2019-06-26T14:19:26.953Z,7.12
2019-06-26T14:21:54.413Z,11.33
2019-06-26T14:24:21.745Z,8.70
2019-06-26T14:26:49.121Z,7.12
2019-06-26T14:29:20.876Z,11.40
2019-06-26T14:31:46.043Z,7.67
2019-06-26T14:34:13.356Z,12.73
2019-06-26T14:36:40.698Z,12.82
2019-06-26T14:39:08.022Z,10.23
2019-06-26T14:41:38.914Z,8.15
2019-06-26T14:44:04.646Z,8.73
2019-06-26T14:46:31.952Z,11.75
2019-06-26T14:48:59.274Z,10.15
2019-06-26T14:51:41.859Z,9.58
2019-06-26T14:53:55.895Z,7.33
2019-06-26T14:56:23.210Z,8.80
2019-06-26T14:58:50.570Z,7.00
2019-06-26T15:01:17.965Z,9.88
2019-06-26T15:03:45.308Z,7.67
2019-06-26T15:06:16.860Z,7.80
2019-06-26T15:08:41.861Z,8.20
2019-06-26T15:11:09.163Z,9.78
2019-06-26T15:13:36.553Z,7.25
2019-06-26T15:16:03.895Z,9.50
2019-06-26T15:18:31.510Z,7.50
2019-06-26T15:21:00.035Z,10.23
2019-06-26T15:23:27.645Z,7.83
2019-06-26T15:25:54.958Z,8.63
2019-06-26T15:28:22.310Z,10.58
2019-06-26T15:30:49.741Z,7.40
2019-06-26T15:33:17.205Z,9.75
2019-06-26T15:35:44.547Z,12.20
2019-06-26T15:38:11.873Z,17.52
2019-06-26T15:40:39.212Z,10.75
2019-06-26T15:43:06.551Z,14.55
2019-06-26T15:45:33.871Z,12.10
2019-06-26T15:48:01.202Z,12.70
2019-06-26T15:50:28.523Z,11.20
2019-06-26T15:52:55.812Z,13.98
2019-06-26T15:55:23.130Z,14.63
2019-06-26T15:57:50.435Z,16.57
2019-06-26T16:00:18.202Z,9.85
2019-06-26T16:02:45.500Z,8.75
2019-06-26T16:05:13.664Z,10.82
2019-06-26T16:07:41.074Z,10.80
2019-06-26T16:10:08.496Z,9.40
2019-06-26T16:12:35.834Z,12.68
2019-06-26T16:15:03.776Z,12.80
2019-06-26T16:17:38.348Z,9.68
2019-06-26T16:20:05.837Z,10.53
2019-06-26T16:22:33.389Z,8.73
2019-06-26T16:25:00.738Z,10.83
2019-06-26T16:27:28.038Z,11.93
2019-06-26T16:29:55.386Z,9.03
2019-06-26T16:32:22.728Z,12.73
2019-06-26T16:34:50.052Z,9.43
2019-06-26T16:37:17.366Z,9.67
2019-06-26T16:39:47.129Z,12.10
2019-06-26T16:42:14.522Z,10.47
2019-06-26T16:44:41.912Z,11.90
2019-06-26T16:47:09.296Z,10.83
2019-06-26T16:49:36.729Z,9.30
2019-06-26T16:52:04.073Z,11.90
2019-06-26T16:54:31.420Z,12.50
2019-06-26T16:56:58.733Z,11.70
2019-06-26T16:59:26.037Z,9.10
2019-06-26T17:01:53.408Z,11.47
2019-06-26T17:04:20.718Z,9.03
2019-06-26T17:06:48.163Z,9.70
2019-06-26T17:09:15.722Z,12.93
2019-06-26T17:11:43.155Z,9.47
2019-06-26T17:14:10.458Z,14.17
2019-06-26T17:16:37.801Z,10.67
2019-06-26T17:19:05.111Z,13.40
2019-06-26T17:21:32.522Z,10.67
2019-06-26T17:24:00.038Z,11.50
2019-06-26T17:26:27.502Z,10.57
2019-06-26T17:28:54.829Z,11.57
2019-06-26T17:31:22.265Z,13.57
2019-06-26T17:33:49.675Z,11.97
2019-06-26T17:36:17.060Z,9.97
2019-06-26T17:38:44.433Z,10.87
2019-06-26T17:41:11.959Z,11.03
2019-06-26T17:43:39.326Z,12.03
2019-06-26T17:46:06.653Z,12.57
2019-06-26T17:48:34.010Z,11.53
2019-06-26T17:51:01.530Z,10.60
2019-06-26T17:53:29.169Z,13.97
2019-06-26T17:55:56.449Z,10.30
2019-06-26T17:58:25.566Z,16.63
2019-06-26T18:00:53.250Z,9.93
2019-06-26T18:03:20.673Z,12.10
2019-06-26T18:05:47.990Z,13.13
2019-06-26T18:08:15.326Z,14.73
2019-06-26T18:10:42.643Z,12.60
2019-06-26T18:13:09.985Z,10.90
2019-06-26T18:15:37.295Z,16.60
2019-06-26T18:18:04.627Z,11.63
2019-06-26T18:20:31.919Z,14.87
2019-06-26T18:23:07.147Z,11.60
2019-06-26T18:25:28.486Z,18.40
2019-06-26T18:27:55.871Z,14.57
2019-06-26T18:30:23.401Z,10.90
2019-06-26T18:32:50.880Z,11.73
2019-06-26T18:35:18.219Z,14.40
2019-06-26T18:37:45.613Z,11.90
2019-06-26T18:40:13.368Z,10.50
2019-06-26T18:42:40.799Z,13.37
2019-06-26T18:45:08.313Z,13.53
2019-06-26T18:47:35.988Z,14.43
2019-06-26T18:50:04.207Z,12.30
2019-06-26T18:52:31.546Z,12.10
2019-06-26T18:54:58.961Z,14.60
2019-06-26T18:57:26.198Z,13.83
2019-06-26T18:59:53.609Z,13.77
2019-06-26T19:02:20.935Z,14.93
2019-06-26T19:04:48.301Z,12.83
2019-06-26T19:07:15.622Z,13.40
2019-06-26T19:09:43.433Z,13.23
2019-06-26T19:12:10.744Z,14.07
2019-06-26T19:14:38.068Z,13.97
2019-06-26T19:17:05.378Z,16.33
2019-06-26T19:19:32.741Z,14.23
2019-06-26T19:22:00.055Z,19.53
2019-06-26T19:24:27.392Z,14.13
2019-06-26T19:26:54.718Z,16.33
2019-06-26T19:29:22.050Z,12.93
2019-06-26T19:31:49.441Z,16.53
2019-06-26T19:34:17.037Z,13.50
2019-06-26T19:36:50.174Z,15.47
2019-06-26T19:39:13.585Z,14.10
2019-06-26T19:41:40.922Z,15.80
2019-06-26T19:44:11.293Z,16.97
2019-06-26T19:46:41.002Z,17.40
2019-06-26T19:49:07.836Z,13.47
2019-06-26T19:55:39.141Z,17.33
2019-06-26T19:58:06.563Z,15.43
2019-06-26T20:00:34.103Z,15.83
2019-06-26T20:03:01.627Z,18.53
2019-06-26T20:05:29.629Z,17.93
2019-06-26T20:08:29.377Z,16.17
2019-06-26T20:10:59.755Z,16.70
2019-06-26T20:13:27.094Z,19.33
2019-06-26T20:15:56.656Z,17.90
2019-06-26T20:18:27.623Z,19.60
2019-06-26T20:20:57.073Z,21.03
2019-06-26T20:23:24.362Z,21.63
2019-06-26T20:25:54.614Z,18.30
2019-06-26T20:28:21.950Z,17.63
2019-06-26T20:30:49.351Z,15.47
2019-06-26T20:33:16.911Z,19.13
2019-06-26T20:35:44.561Z,16.03
2019-06-26T20:38:12.436Z,16.30
2019-06-26T20:40:39.826Z,20.27
2019-06-26T20:43:16.310Z,21.80
2019-06-26T20:45:43.754Z,17.50
2019-06-26T20:48:11.144Z,20.30
2019-06-26T20:50:41.988Z,18.70
2019-06-26T20:53:09.308Z,20.53
2019-06-26T20:55:36.809Z,20.57
2019-06-26T20:58:04.134Z,20.53
2019-06-26T21:00:31.491Z,18.87
2019-06-26T21:02:58.975Z,18.70
2019-06-26T21:05:28.728Z,19.97
2019-06-26T21:07:55.642Z,19.53
2019-06-26T21:10:24.362Z,16.47
2019-06-26T21:12:51.873Z,18.80
2019-06-26T21:15:19.262Z,16.53
2019-06-26T21:17:46.637Z,16.97
2019-06-26T21:20:14.051Z,16.97
2019-06-26T21:22:41.407Z,18.80
2019-06-26T21:25:18.538Z,15.40
2019-06-26T21:27:44.486Z,16.70
2019-06-26T21:30:12.341Z,17.57
2019-06-26T21:32:39.934Z,17.40
2019-06-26T21:35:07.331Z,19.10
2019-06-26T21:37:38.794Z,20.47
2019-06-26T21:40:06.608Z,17.07
2019-06-26T21:42:33.967Z,16.17
2019-06-26T21:45:01.459Z,20.37
2019-06-26T21:47:29.423Z,16.80
2019-06-26T21:49:56.750Z,20.17
2019-06-26T21:52:24.169Z,16.57
2019-06-26T21:54:53.586Z,16.37
2019-06-26T21:57:20.995Z,17.37
2019-06-26T21:59:48.311Z,22.13
2019-06-26T22:02:15.786Z,23.67
2019-06-26T22:04:43.102Z,21.50
2019-06-26T22:07:13.180Z,18.70
2019-06-26T22:09:42.550Z,23.63
2019-06-26T22:12:12.132Z,17.93
2019-06-26T22:14:39.632Z,26.20
2019-06-26T22:17:07.000Z,25.07
2019-06-26T22:19:34.439Z,22.20
2019-06-26T22:22:01.827Z,26.80
2019-06-26T22:24:29.182Z,24.53
2019-06-26T22:26:59.582Z,20.50
2019-06-26T22:29:27.154Z,25.87
2019-06-26T22:31:54.862Z,21.10
2019-06-26T22:34:22.363Z,21.73
2019-06-26T22:36:52.150Z,16.33
2019-06-26T22:39:24.425Z,25.37
2019-06-26T22:41:53.592Z,20.23
2019-06-26T22:44:22.778Z,18.87
2019-06-26T22:46:50.130Z,19.17
2019-06-26T22:49:17.495Z,23.00
2019-06-26T22:51:44.887Z,19.43
2019-06-26T22:54:12.248Z,23.37
2019-06-26T22:56:39.574Z,20.20
2019-06-26T22:59:06.966Z,18.80
2019-06-26T23:01:34.250Z,17.97
2019-06-26T23:04:01.806Z,19.57
2019-06-26T23:06:29.201Z,22.93
2019-06-26T23:08:56.593Z,19.03
2019-06-26T23:11:23.947Z,24.57
2019-06-26T23:13:51.291Z,18.33
2019-06-26T23:16:18.596Z,24.97
2019-06-26T23:18:45.998Z,20.80
2019-06-26T23:21:13.415Z,20.17
2019-06-26T23:23:40.704Z,18.60
2019-06-26T23:26:23.012Z,21.10
2019-06-26T23:28:37.306Z,23.17
2019-06-26T23:31:04.720Z,21.33
2019-06-26T23:33:32.053Z,21.73
2019-06-26T23:35:59.423Z,24.17
2019-06-26T23:38:26.757Z,20.40
2019-06-26T23:40:54.118Z,24.30
2019-06-26T23:43:21.659Z,24.83
2019-06-26T23:45:49.186Z,22.37
2019-06-26T23:48:16.938Z,28.20
2019-06-26T23:50:44.460Z,21.77
2019-06-26T23:53:11.741Z,25.17
2019-06-26T23:55:39.174Z,21.80
2019-06-26T23:58:06.479Z,21.83
